sensor_id;sensor_type;location;lat;lon;timestamp;P1;durP1;ratioP1;P2;durP2;ratioP2
57561;SDS011;43397;51.530;5.974;2023-06-26T00:00:20;30.42;;;27.58;;
57561;SDS011;43397;51.530;5.974;2023-06-26T00:02:45;31.00;;;28.15;;
57561;SDS011;43397;51.530;5.974;2023-06-26T00:05:11;30.05;;;27.25;;
57561;SDS011;43397;51.530;5.974;2023-06-26T00:07:38;28.00;;;25.40;;
57561;SDS011;43397;51.530;5.974;2023-06-26T00:10:04;26.17;;;23.67;;
57561;SDS011;43397;51.530;5.974;2023-06-26T00:12:31;25.45;;;23.00;;
57561;SDS011;43397;51.530;5.974;2023-06-26T00:14:57;27.75;;;24.85;;
57561;SDS011;43397;51.530;5.974;2023-06-26T00:17:23;26.90;;;24.25;;
57561;SDS011;43397;51.530;5.974;2023-06-26T00:19:49;26.50;;;23.90;;
57561;SDS011;43397;51.530;5.974;2023-06-26T00:22:15;27.85;;;25.05;;
57561;SDS011;43397;51.530;5.974;2023-06-26T00:24:42;30.85;;;28.05;;
57561;SDS011;43397;51.530;5.974;2023-06-26T00:27:08;28.67;;;25.98;;
57561;SDS011;43397;51.530;5.974;2023-06-26T00:29:33;29.52;;;26.88;;
57561;SDS011;43397;51.530;5.974;2023-06-26T00:31:59;29.52;;;26.73;;
57561;SDS011;43397;51.530;5.974;2023-06-26T00:34:25;29.25;;;26.48;;
57561;SDS011;43397;51.530;5.974;2023-06-26T00:36:50;30.33;;;27.45;;
57561;SDS011;43397;51.530;5.974;2023-06-26T00:39:16;27.88;;;25.17;;
57561;SDS011;43397;51.530;5.974;2023-06-26T00:41:43;25.55;;;23.00;;
57561;SDS011;43397;51.530;5.974;2023-06-26T00:44:09;23.98;;;21.52;;
57561;SDS011;43397;51.530;5.974;2023-06-26T00:46:34;24.10;;;21.65;;
57561;SDS011;43397;51.530;5.974;2023-06-26T00:49:00;20.10;;;18.10;;
57561;SDS011;43397;51.530;5.974;2023-06-26T00:51:28;19.67;;;17.67;;
57561;SDS011;43397;51.530;5.974;2023-06-26T00:53:55;19.48;;;17.58;;
57561;SDS011;43397;51.530;5.974;2023-06-26T00:56:21;19.20;;;17.17;;
57561;SDS011;43397;51.530;5.974;2023-06-26T00:58:49;20.27;;;18.25;;
57561;SDS011;43397;51.530;5.974;2023-06-26T01:01:15;21.63;;;19.45;;
57561;SDS011;43397;51.530;5.974;2023-06-26T01:03:41;21.75;;;19.63;;
57561;SDS011;43397;51.530;5.974;2023-06-26T01:06:07;21.65;;;19.35;;
57561;SDS011;43397;51.530;5.974;2023-06-26T01:08:34;21.50;;;19.25;;
57561;SDS011;43397;51.530;5.974;2023-06-26T01:11:00;20.40;;;18.42;;
57561;SDS011;43397;51.530;5.974;2023-06-26T01:13:25;19.80;;;17.85;;
57561;SDS011;43397;51.530;5.974;2023-06-26T01:15:55;18.60;;;16.73;;
57561;SDS011;43397;51.530;5.974;2023-06-26T01:18:22;18.93;;;16.97;;
57561;SDS011;43397;51.530;5.974;2023-06-26T01:20:49;18.60;;;16.70;;
57561;SDS011;43397;51.530;5.974;2023-06-26T01:23:17;18.33;;;16.52;;
57561;SDS011;43397;51.530;5.974;2023-06-26T01:25:52;19.67;;;17.63;;
57561;SDS011;43397;51.530;5.974;2023-06-26T01:28:27;19.08;;;16.92;;
57561;SDS011;43397;51.530;5.974;2023-06-26T01:30:54;22.38;;;19.70;;
57561;SDS011;43397;51.530;5.974;2023-06-26T01:33:20;22.23;;;19.88;;
57561;SDS011;43397;51.530;5.974;2023-06-26T01:35:46;23.35;;;20.95;;
57561;SDS011;43397;51.530;5.974;2023-06-26T01:38:12;22.92;;;20.52;;
57561;SDS011;43397;51.530;5.974;2023-06-26T01:40:39;23.70;;;21.35;;
57561;SDS011;43397;51.530;5.974;2023-06-26T01:43:05;24.48;;;21.92;;
57561;SDS011;43397;51.530;5.974;2023-06-26T01:45:36;24.77;;;22.38;;
57561;SDS011;43397;51.530;5.974;2023-06-26T01:48:03;25.15;;;22.45;;
57561;SDS011;43397;51.530;5.974;2023-06-26T01:50:31;24.98;;;22.58;;
57561;SDS011;43397;51.530;5.974;2023-06-26T01:53:01;24.40;;;21.98;;
57561;SDS011;43397;51.530;5.974;2023-06-26T01:55:31;26.48;;;22.48;;
57561;SDS011;43397;51.530;5.974;2023-06-26T01:58:03;23.83;;;21.45;;
57561;SDS011;43397;51.530;5.974;2023-06-26T02:00:29;24.10;;;21.60;;
57561;SDS011;43397;51.530;5.974;2023-06-26T02:02:58;20.77;;;18.77;;
57561;SDS011;43397;51.530;5.974;2023-06-26T02:05:24;18.35;;;16.55;;
57561;SDS011;43397;51.530;5.974;2023-06-26T02:07:50;17.20;;;15.40;;
57561;SDS011;43397;51.530;5.974;2023-06-26T02:10:15;15.25;;;13.45;;
57561;SDS011;43397;51.530;5.974;2023-06-26T02:12:41;17.08;;;14.10;;
57561;SDS011;43397;51.530;5.974;2023-06-26T02:15:07;16.45;;;14.13;;
57561;SDS011;43397;51.530;5.974;2023-06-26T02:17:34;15.25;;;11.82;;
57561;SDS011;43397;51.530;5.974;2023-06-26T02:20:00;14.15;;;11.32;;
57561;SDS011;43397;51.530;5.974;2023-06-26T02:22:26;12.90;;;10.43;;
57561;SDS011;43397;51.530;5.974;2023-06-26T02:24:52;15.13;;;10.77;;
57561;SDS011;43397;51.530;5.974;2023-06-26T02:27:18;16.13;;;10.05;;
57561;SDS011;43397;51.530;5.974;2023-06-26T02:29:43;13.10;;;9.90;;
57561;SDS011;43397;51.530;5.974;2023-06-26T02:32:09;13.20;;;9.88;;
57561;SDS011;43397;51.530;5.974;2023-06-26T02:34:35;12.73;;;9.48;;
57561;SDS011;43397;51.530;5.974;2023-06-26T02:37:02;11.77;;;8.73;;
57561;SDS011;43397;51.530;5.974;2023-06-26T02:39:28;13.40;;;9.38;;
57561;SDS011;43397;51.530;5.974;2023-06-26T02:41:53;12.32;;;9.30;;
57561;SDS011;43397;51.530;5.974;2023-06-26T02:44:19;11.13;;;8.85;;
57561;SDS011;43397;51.530;5.974;2023-06-26T02:46:45;13.90;;;9.55;;
57561;SDS011;43397;51.530;5.974;2023-06-26T02:49:10;13.27;;;9.68;;
57561;SDS011;43397;51.530;5.974;2023-06-26T02:51:36;11.52;;;8.52;;
57561;SDS011;43397;51.530;5.974;2023-06-26T02:54:03;12.43;;;9.13;;
57561;SDS011;43397;51.530;5.974;2023-06-26T02:56:29;14.23;;;8.90;;
57561;SDS011;43397;51.530;5.974;2023-06-26T02:58:54;11.63;;;9.15;;
57561;SDS011;43397;51.530;5.974;2023-06-26T03:01:20;10.90;;;8.20;;
57561;SDS011;43397;51.530;5.974;2023-06-26T03:03:46;12.95;;;8.00;;
57561;SDS011;43397;51.530;5.974;2023-06-26T03:06:12;12.32;;;8.50;;
57561;SDS011;43397;51.530;5.974;2023-06-26T03:08:38;11.40;;;8.40;;
57561;SDS011;43397;51.530;5.974;2023-06-26T03:11:05;12.07;;;8.43;;
57561;SDS011;43397;51.530;5.974;2023-06-26T03:13:31;12.98;;;8.57;;
57561;SDS011;43397;51.530;5.974;2023-06-26T03:15:57;12.00;;;8.52;;
57561;SDS011;43397;51.530;5.974;2023-06-26T03:18:23;13.70;;;9.80;;
57561;SDS011;43397;51.530;5.974;2023-06-26T03:20:49;14.48;;;9.10;;
57561;SDS011;43397;51.530;5.974;2023-06-26T03:23:14;13.77;;;9.52;;
57561;SDS011;43397;51.530;5.974;2023-06-26T03:25:40;14.13;;;9.48;;
57561;SDS011;43397;51.530;5.974;2023-06-26T03:28:07;12.13;;;8.82;;
57561;SDS011;43397;51.530;5.974;2023-06-26T03:30:33;13.05;;;8.90;;
57561;SDS011;43397;51.530;5.974;2023-06-26T03:32:58;13.20;;;8.25;;
57561;SDS011;43397;51.530;5.974;2023-06-26T03:35:24;15.23;;;8.35;;
57561;SDS011;43397;51.530;5.974;2023-06-26T03:37:50;12.13;;;8.02;;
57561;SDS011;43397;51.530;5.974;2023-06-26T03:40:15;11.18;;;7.68;;
57561;SDS011;43397;51.530;5.974;2023-06-26T03:42:42;11.93;;;7.82;;
57561;SDS011;43397;51.530;5.974;2023-06-26T03:45:09;12.15;;;7.57;;
57561;SDS011;43397;51.530;5.974;2023-06-26T03:47:35;11.55;;;6.57;;
57561;SDS011;43397;51.530;5.974;2023-06-26T03:50:01;10.20;;;6.53;;
57561;SDS011;43397;51.530;5.974;2023-06-26T03:52:26;9.75;;;6.03;;
57561;SDS011;43397;51.530;5.974;2023-06-26T03:54:52;11.45;;;6.68;;
57561;SDS011;43397;51.530;5.974;2023-06-26T03:57:17;13.63;;;7.50;;
57561;SDS011;43397;51.530;5.974;2023-06-26T03:59:43;11.50;;;7.22;;
57561;SDS011;43397;51.530;5.974;2023-06-26T04:02:10;12.10;;;6.30;;
57561;SDS011;43397;51.530;5.974;2023-06-26T04:04:36;12.63;;;6.78;;
57561;SDS011;43397;51.530;5.974;2023-06-26T04:07:01;14.13;;;6.43;;
57561;SDS011;43397;51.530;5.974;2023-06-26T04:09:27;14.85;;;7.32;;
57561;SDS011;43397;51.530;5.974;2023-06-26T04:11:53;12.13;;;6.50;;
57561;SDS011;43397;51.530;5.974;2023-06-26T04:14:18;12.43;;;7.28;;
57561;SDS011;43397;51.530;5.974;2023-06-26T04:16:44;10.23;;;6.45;;
57561;SDS011;43397;51.530;5.974;2023-06-26T04:19:11;12.90;;;6.80;;
57561;SDS011;43397;51.530;5.974;2023-06-26T04:21:37;12.27;;;6.57;;
57561;SDS011;43397;51.530;5.974;2023-06-26T04:24:03;10.68;;;6.28;;
57561;SDS011;43397;51.530;5.974;2023-06-26T04:26:29;16.48;;;6.70;;
57561;SDS011;43397;51.530;5.974;2023-06-26T04:28:55;11.20;;;6.43;;
57561;SDS011;43397;51.530;5.974;2023-06-26T04:31:20;13.02;;;6.57;;
57561;SDS011;43397;51.530;5.974;2023-06-26T04:33:46;12.30;;;6.50;;
57561;SDS011;43397;51.530;5.974;2023-06-26T04:36:13;10.55;;;6.30;;
57561;SDS011;43397;51.530;5.974;2023-06-26T04:38:39;14.52;;;6.43;;
57561;SDS011;43397;51.530;5.974;2023-06-26T04:41:05;13.73;;;6.80;;
57561;SDS011;43397;51.530;5.974;2023-06-26T04:43:30;12.23;;;6.50;;
57561;SDS011;43397;51.530;5.974;2023-06-26T04:45:56;13.68;;;6.65;;
57561;SDS011;43397;51.530;5.974;2023-06-26T04:48:22;13.55;;;7.07;;
57561;SDS011;43397;51.530;5.974;2023-06-26T04:50:47;14.55;;;6.57;;
57561;SDS011;43397;51.530;5.974;2023-06-26T04:53:14;11.25;;;6.63;;
57561;SDS011;43397;51.530;5.974;2023-06-26T04:55:40;17.77;;;6.97;;
57561;SDS011;43397;51.530;5.974;2023-06-26T04:58:06;14.13;;;7.10;;
57561;SDS011;43397;51.530;5.974;2023-06-26T05:00:31;13.80;;;6.63;;
57561;SDS011;43397;51.530;5.974;2023-06-26T05:02:57;13.25;;;6.70;;
57561;SDS011;43397;51.530;5.974;2023-06-26T05:05:22;11.55;;;6.38;;
57561;SDS011;43397;51.530;5.974;2023-06-26T05:07:48;15.10;;;7.40;;
57561;SDS011;43397;51.530;5.974;2023-06-26T05:10:15;15.80;;;6.85;;
57561;SDS011;43397;51.530;5.974;2023-06-26T05:12:41;15.80;;;6.47;;
57561;SDS011;43397;51.530;5.974;2023-06-26T05:15:06;12.95;;;6.85;;
57561;SDS011;43397;51.530;5.974;2023-06-26T05:17:32;15.02;;;6.55;;
57561;SDS011;43397;51.530;5.974;2023-06-26T05:19:58;13.07;;;5.80;;
57561;SDS011;43397;51.530;5.974;2023-06-26T05:22:24;15.45;;;6.60;;
57561;SDS011;43397;51.530;5.974;2023-06-26T05:24:51;14.88;;;5.95;;
57561;SDS011;43397;51.530;5.974;2023-06-26T05:27:21;13.85;;;6.32;;
57561;SDS011;43397;51.530;5.974;2023-06-26T05:29:47;11.90;;;6.05;;
57561;SDS011;43397;51.530;5.974;2023-06-26T05:32:14;14.10;;;5.68;;
57561;SDS011;43397;51.530;5.974;2023-06-26T05:34:41;11.50;;;5.68;;
57561;SDS011;43397;51.530;5.974;2023-06-26T05:37:07;16.52;;;6.72;;
57561;SDS011;43397;51.530;5.974;2023-06-26T05:39:34;16.17;;;5.97;;
57561;SDS011;43397;51.530;5.974;2023-06-26T05:42:00;13.90;;;5.80;;
57561;SDS011;43397;51.530;5.974;2023-06-26T05:44:27;17.77;;;6.13;;
57561;SDS011;43397;51.530;5.974;2023-06-26T05:46:53;12.10;;;5.82;;
57561;SDS011;43397;51.530;5.974;2023-06-26T05:49:19;11.85;;;5.53;;
57561;SDS011;43397;51.530;5.974;2023-06-26T05:51:45;12.90;;;6.60;;
57561;SDS011;43397;51.530;5.974;2023-06-26T05:54:11;9.85;;;5.80;;
57561;SDS011;43397;51.530;5.974;2023-06-26T05:56:37;16.15;;;6.70;;
57561;SDS011;43397;51.530;5.974;2023-06-26T05:59:03;13.60;;;5.57;;
57561;SDS011;43397;51.530;5.974;2023-06-26T06:01:32;11.95;;;5.30;;
57561;SDS011;43397;51.530;5.974;2023-06-26T06:03:57;11.55;;;5.18;;
57561;SDS011;43397;51.530;5.974;2023-06-26T06:06:23;11.55;;;5.57;;
57561;SDS011;43397;51.530;5.974;2023-06-26T06:08:48;17.27;;;6.00;;
57561;SDS011;43397;51.530;5.974;2023-06-26T06:11:14;12.48;;;5.82;;
57561;SDS011;43397;51.530;5.974;2023-06-26T06:13:40;13.85;;;5.78;;
57561;SDS011;43397;51.530;5.974;2023-06-26T06:16:05;13.60;;;5.43;;
57561;SDS011;43397;51.530;5.974;2023-06-26T06:18:32;13.20;;;5.40;;
57561;SDS011;43397;51.530;5.974;2023-06-26T06:20:58;12.88;;;5.85;;
57561;SDS011;43397;51.530;5.974;2023-06-26T06:23:24;14.90;;;5.40;;
57561;SDS011;43397;51.530;5.974;2023-06-26T06:25:49;11.65;;;5.45;;
57561;SDS011;43397;51.530;5.974;2023-06-26T06:28:15;11.70;;;5.45;;
57561;SDS011;43397;51.530;5.974;2023-06-26T06:30:40;12.82;;;5.88;;
57561;SDS011;43397;51.530;5.974;2023-06-26T06:33:06;13.13;;;5.00;;
57561;SDS011;43397;51.530;5.974;2023-06-26T06:35:33;13.43;;;5.38;;
57561;SDS011;43397;51.530;5.974;2023-06-26T06:37:59;12.27;;;5.22;;
57561;SDS011;43397;51.530;5.974;2023-06-26T06:40:24;15.23;;;5.38;;
57561;SDS011;43397;51.530;5.974;2023-06-26T06:42:50;14.50;;;5.53;;
57561;SDS011;43397;51.530;5.974;2023-06-26T06:45:15;12.63;;;5.05;;
57561;SDS011;43397;51.530;5.974;2023-06-26T06:47:41;12.43;;;5.10;;
57561;SDS011;43397;51.530;5.974;2023-06-26T06:50:07;16.30;;;5.70;;
57561;SDS011;43397;51.530;5.974;2023-06-26T06:52:34;14.70;;;5.00;;
57561;SDS011;43397;51.530;5.974;2023-06-26T06:55:01;11.73;;;5.40;;
57561;SDS011;43397;51.530;5.974;2023-06-26T06:57:26;13.25;;;4.95;;
57561;SDS011;43397;51.530;5.974;2023-06-26T06:59:52;11.32;;;4.97;;
57561;SDS011;43397;51.530;5.974;2023-06-26T07:02:18;14.23;;;4.75;;
57561;SDS011;43397;51.530;5.974;2023-06-26T07:04:44;11.27;;;4.50;;
57561;SDS011;43397;51.530;5.974;2023-06-26T07:07:09;10.88;;;4.35;;
57561;SDS011;43397;51.530;5.974;2023-06-26T07:09:36;12.75;;;4.57;;
57561;SDS011;43397;51.530;5.974;2023-06-26T07:12:02;11.15;;;4.90;;
57561;SDS011;43397;51.530;5.974;2023-06-26T07:14:28;8.88;;;4.25;;
57561;SDS011;43397;51.530;5.974;2023-06-26T07:16:54;10.93;;;4.63;;
57561;SDS011;43397;51.530;5.974;2023-06-26T07:19:20;11.48;;;4.68;;
57561;SDS011;43397;51.530;5.974;2023-06-26T07:21:45;10.75;;;4.47;;
57561;SDS011;43397;51.530;5.974;2023-06-26T07:24:11;11.18;;;4.35;;
57561;SDS011;43397;51.530;5.974;2023-06-26T07:26:38;10.35;;;4.20;;
57561;SDS011;43397;51.530;5.974;2023-06-26T07:29:04;10.80;;;4.00;;
57561;SDS011;43397;51.530;5.974;2023-06-26T07:31:29;10.88;;;4.00;;
57561;SDS011;43397;51.530;5.974;2023-06-26T07:33:55;8.45;;;3.17;;
57561;SDS011;43397;51.530;5.974;2023-06-26T07:36:20;11.15;;;4.03;;
57561;SDS011;43397;51.530;5.974;2023-06-26T07:38:47;8.82;;;4.10;;
57561;SDS011;43397;51.530;5.974;2023-06-26T07:41:12;11.13;;;4.60;;
57561;SDS011;43397;51.530;5.974;2023-06-26T07:43:39;11.27;;;3.83;;
57561;SDS011;43397;51.530;5.974;2023-06-26T07:46:05;8.60;;;3.63;;
57561;SDS011;43397;51.530;5.974;2023-06-26T07:48:30;11.60;;;3.97;;
57561;SDS011;43397;51.530;5.974;2023-06-26T07:50:56;12.00;;;4.25;;
57561;SDS011;43397;51.530;5.974;2023-06-26T07:53:22;8.93;;;3.60;;
57561;SDS011;43397;51.530;5.974;2023-06-26T07:55:47;10.77;;;3.70;;
57561;SDS011;43397;51.530;5.974;2023-06-26T07:58:13;11.18;;;3.70;;
57561;SDS011;43397;51.530;5.974;2023-06-26T08:00:40;6.80;;;3.67;;
57561;SDS011;43397;51.530;5.974;2023-06-26T08:03:06;17.98;;;3.92;;
57561;SDS011;43397;51.530;5.974;2023-06-26T08:05:31;10.23;;;3.72;;
57561;SDS011;43397;51.530;5.974;2023-06-26T08:07:57;10.65;;;4.95;;
57561;SDS011;43397;51.530;5.974;2023-06-26T08:10:22;8.07;;;4.00;;
57561;SDS011;43397;51.530;5.974;2023-06-26T08:12:48;9.50;;;4.00;;
57561;SDS011;43397;51.530;5.974;2023-06-26T08:15:14;9.18;;;3.67;;
57561;SDS011;43397;51.530;5.974;2023-06-26T08:17:41;8.13;;;4.03;;
57561;SDS011;43397;51.530;5.974;2023-06-26T08:20:07;10.02;;;4.40;;
57561;SDS011;43397;51.530;5.974;2023-06-26T08:22:33;7.97;;;3.85;;
57561;SDS011;43397;51.530;5.974;2023-06-26T08:24:59;7.97;;;3.95;;
57561;SDS011;43397;51.530;5.974;2023-06-26T08:27:24;9.50;;;4.03;;
57561;SDS011;43397;51.530;5.974;2023-06-26T08:29:50;9.05;;;3.90;;
57561;SDS011;43397;51.530;5.974;2023-06-26T08:32:16;8.60;;;3.67;;
57561;SDS011;43397;51.530;5.974;2023-06-26T08:34:43;8.60;;;3.75;;
57561;SDS011;43397;51.530;5.974;2023-06-26T08:37:08;8.75;;;3.97;;
57561;SDS011;43397;51.530;5.974;2023-06-26T08:39:34;9.23;;;3.85;;
57561;SDS011;43397;51.530;5.974;2023-06-26T08:42:00;7.05;;;3.78;;
57561;SDS011;43397;51.530;5.974;2023-06-26T08:44:25;7.43;;;4.38;;
57561;SDS011;43397;51.530;5.974;2023-06-26T08:46:51;7.88;;;4.25;;
57561;SDS011;43397;51.530;5.974;2023-06-26T08:49:18;7.53;;;4.20;;
57561;SDS011;43397;51.530;5.974;2023-06-26T08:51:49;8.20;;;4.25;;
57561;SDS011;43397;51.530;5.974;2023-06-26T08:54:17;8.50;;;4.05;;
57561;SDS011;43397;51.530;5.974;2023-06-26T08:56:51;7.25;;;4.25;;
57561;SDS011;43397;51.530;5.974;2023-06-26T08:59:17;7.97;;;4.47;;
57561;SDS011;43397;51.530;5.974;2023-06-26T09:01:43;8.52;;;4.70;;
57561;SDS011;43397;51.530;5.974;2023-06-26T09:04:09;8.70;;;5.05;;
57561;SDS011;43397;51.530;5.974;2023-06-26T09:06:34;6.75;;;4.57;;
57561;SDS011;43397;51.530;5.974;2023-06-26T09:09:02;9.60;;;4.88;;
57561;SDS011;43397;51.530;5.974;2023-06-26T09:11:28;8.35;;;5.45;;
57561;SDS011;43397;51.530;5.974;2023-06-26T09:13:54;11.70;;;4.72;;
57561;SDS011;43397;51.530;5.974;2023-06-26T09:16:23;5.07;;;2.40;;
57561;SDS011;43397;51.530;5.974;2023-06-26T09:18:50;5.20;;;2.00;;
57561;SDS011;43397;51.530;5.974;2023-06-26T09:21:17;4.07;;;1.73;;
57561;SDS011;43397;51.530;5.974;2023-06-26T09:23:43;4.13;;;1.55;;
57561;SDS011;43397;51.530;5.974;2023-06-26T09:26:10;4.78;;;1.60;;
57561;SDS011;43397;51.530;5.974;2023-06-26T09:28:36;4.88;;;1.65;;
57561;SDS011;43397;51.530;5.974;2023-06-26T09:31:02;5.90;;;1.80;;
57561;SDS011;43397;51.530;5.974;2023-06-26T09:33:28;4.82;;;1.75;;
57561;SDS011;43397;51.530;5.974;2023-06-26T09:35:58;5.32;;;1.83;;
57561;SDS011;43397;51.530;5.974;2023-06-26T09:38:24;6.38;;;2.78;;
57561;SDS011;43397;51.530;5.974;2023-06-26T09:40:50;6.05;;;1.92;;
57561;SDS011;43397;51.530;5.974;2023-06-26T09:43:16;5.90;;;2.50;;
57561;SDS011;43397;51.530;5.974;2023-06-26T09:45:43;5.50;;;2.25;;
57561;SDS011;43397;51.530;5.974;2023-06-26T09:48:09;5.57;;;1.67;;
57561;SDS011;43397;51.530;5.974;2023-06-26T09:50:35;4.40;;;1.55;;
57561;SDS011;43397;51.530;5.974;2023-06-26T09:53:07;6.07;;;1.50;;
57561;SDS011;43397;51.530;5.974;2023-06-26T09:55:34;4.72;;;1.48;;
57561;SDS011;43397;51.530;5.974;2023-06-26T09:58:00;4.85;;;1.10;;
57561;SDS011;43397;51.530;5.974;2023-06-26T10:00:29;5.35;;;1.70;;
57561;SDS011;43397;51.530;5.974;2023-06-26T10:02:55;4.50;;;1.70;;
57561;SDS011;43397;51.530;5.974;2023-06-26T10:05:21;4.15;;;1.48;;
57561;SDS011;43397;51.530;5.974;2023-06-26T10:07:47;4.35;;;1.40;;
57561;SDS011;43397;51.530;5.974;2023-06-26T10:10:13;5.82;;;1.27;;
57561;SDS011;43397;51.530;5.974;2023-06-26T10:12:41;4.93;;;1.20;;
57561;SDS011;43397;51.530;5.974;2023-06-26T10:15:09;4.15;;;1.35;;
57561;SDS011;43397;51.530;5.974;2023-06-26T10:17:37;3.92;;;1.27;;
57561;SDS011;43397;51.530;5.974;2023-06-26T10:20:06;6.43;;;1.27;;
57561;SDS011;43397;51.530;5.974;2023-06-26T10:22:43;3.95;;;1.45;;
57561;SDS011;43397;51.530;5.974;2023-06-26T10:25:10;3.85;;;1.35;;
57561;SDS011;43397;51.530;5.974;2023-06-26T10:27:41;3.13;;;0.82;;
57561;SDS011;43397;51.530;5.974;2023-06-26T10:30:10;5.32;;;1.33;;
57561;SDS011;43397;51.530;5.974;2023-06-26T10:32:42;6.60;;;1.30;;
57561;SDS011;43397;51.530;5.974;2023-06-26T10:35:08;4.30;;;1.03;;
57561;SDS011;43397;51.530;5.974;2023-06-26T10:37:42;8.27;;;1.33;;
57561;SDS011;43397;51.530;5.974;2023-06-26T10:40:08;4.38;;;1.20;;
57561;SDS011;43397;51.530;5.974;2023-06-26T10:42:34;2.70;;;0.80;;
57561;SDS011;43397;51.530;5.974;2023-06-26T10:45:08;4.32;;;1.10;;
57561;SDS011;43397;51.530;5.974;2023-06-26T10:47:34;5.78;;;1.38;;
57561;SDS011;43397;51.530;5.974;2023-06-26T10:50:20;3.95;;;1.15;;
57561;SDS011;43397;51.530;5.974;2023-06-26T10:53:07;4.10;;;1.02;;
57561;SDS011;43397;51.530;5.974;2023-06-26T10:55:34;3.75;;;0.95;;
57561;SDS011;43397;51.530;5.974;2023-06-26T10:58:00;2.90;;;1.00;;
57561;SDS011;43397;51.530;5.974;2023-06-26T11:00:26;3.33;;;1.10;;
57561;SDS011;43397;51.530;5.974;2023-06-26T11:02:51;5.50;;;1.02;;
57561;SDS011;43397;51.530;5.974;2023-06-26T11:05:26;6.55;;;1.55;;
57561;SDS011;43397;51.530;5.974;2023-06-26T11:08:02;3.72;;;1.02;;
57561;SDS011;43397;51.530;5.974;2023-06-26T11:10:29;4.90;;;1.05;;
57561;SDS011;43397;51.530;5.974;2023-06-26T11:12:54;4.65;;;1.17;;
57561;SDS011;43397;51.530;5.974;2023-06-26T11:15:24;4.20;;;1.20;;
57561;SDS011;43397;51.530;5.974;2023-06-26T11:17:51;4.50;;;1.00;;
57561;SDS011;43397;51.530;5.974;2023-06-26T11:20:18;4.55;;;1.33;;
57561;SDS011;43397;51.530;5.974;2023-06-26T11:22:46;2.75;;;0.90;;
57561;SDS011;43397;51.530;5.974;2023-06-26T11:25:17;5.65;;;0.93;;
57561;SDS011;43397;51.530;5.974;2023-06-26T11:27:45;3.15;;;0.90;;
57561;SDS011;43397;51.530;5.974;2023-06-26T11:30:11;4.15;;;0.95;;
57561;SDS011;43397;51.530;5.974;2023-06-26T11:32:48;2.80;;;0.90;;
57561;SDS011;43397;51.530;5.974;2023-06-26T11:35:16;3.75;;;1.45;;
57561;SDS011;43397;51.530;5.974;2023-06-26T11:37:49;3.97;;;1.40;;
57561;SDS011;43397;51.530;5.974;2023-06-26T11:40:18;5.00;;;1.45;;
57561;SDS011;43397;51.530;5.974;2023-06-26T11:42:44;4.03;;;1.08;;
57561;SDS011;43397;51.530;5.974;2023-06-26T11:45:10;3.70;;;1.23;;
57561;SDS011;43397;51.530;5.974;2023-06-26T11:47:35;5.63;;;1.20;;
57561;SDS011;43397;51.530;5.974;2023-06-26T11:50:05;4.47;;;1.08;;
57561;SDS011;43397;51.530;5.974;2023-06-26T11:52:32;4.82;;;1.15;;
57561;SDS011;43397;51.530;5.974;2023-06-26T11:54:59;3.92;;;1.20;;
57561;SDS011;43397;51.530;5.974;2023-06-26T11:57:25;4.25;;;1.00;;
57561;SDS011;43397;51.530;5.974;2023-06-26T11:59:50;3.70;;;1.10;;
57561;SDS011;43397;51.530;5.974;2023-06-26T12:02:16;5.18;;;1.40;;
57561;SDS011;43397;51.530;5.974;2023-06-26T12:04:42;3.30;;;1.20;;
57561;SDS011;43397;51.530;5.974;2023-06-26T12:07:09;3.85;;;1.10;;
57561;SDS011;43397;51.530;5.974;2023-06-26T12:09:38;4.53;;;1.10;;
57561;SDS011;43397;51.530;5.974;2023-06-26T12:12:07;5.72;;;1.20;;
57561;SDS011;43397;51.530;5.974;2023-06-26T12:14:33;3.40;;;1.20;;
57561;SDS011;43397;51.530;5.974;2023-06-26T12:17:03;5.00;;;1.25;;
57561;SDS011;43397;51.530;5.974;2023-06-26T12:19:30;4.15;;;1.15;;
57561;SDS011;43397;51.530;5.974;2023-06-26T12:21:56;3.28;;;1.25;;
57561;SDS011;43397;51.530;5.974;2023-06-26T12:24:22;3.95;;;1.30;;
57561;SDS011;43397;51.530;5.974;2023-06-26T12:26:49;3.05;;;1.10;;
57561;SDS011;43397;51.530;5.974;2023-06-26T12:29:18;5.47;;;1.33;;
57561;SDS011;43397;51.530;5.974;2023-06-26T12:31:45;5.70;;;1.27;;
57561;SDS011;43397;51.530;5.974;2023-06-26T12:34:11;3.45;;;1.20;;
57561;SDS011;43397;51.530;5.974;2023-06-26T12:36:41;2.78;;;1.02;;
57561;SDS011;43397;51.530;5.974;2023-06-26T12:39:09;3.58;;;1.00;;
57561;SDS011;43397;51.530;5.974;2023-06-26T12:41:35;4.68;;;1.10;;
57561;SDS011;43397;51.530;5.974;2023-06-26T12:44:15;4.82;;;1.20;;
57561;SDS011;43397;51.530;5.974;2023-06-26T12:46:43;4.70;;;1.08;;
57561;SDS011;43397;51.530;5.974;2023-06-26T12:49:08;4.60;;;1.23;;
57561;SDS011;43397;51.530;5.974;2023-06-26T12:51:37;4.50;;;1.40;;
57561;SDS011;43397;51.530;5.974;2023-06-26T12:54:03;4.47;;;1.25;;
57561;SDS011;43397;51.530;5.974;2023-06-26T12:56:29;3.30;;;1.15;;
57561;SDS011;43397;51.530;5.974;2023-06-26T12:58:54;4.25;;;1.25;;
57561;SDS011;43397;51.530;5.974;2023-06-26T13:01:21;5.55;;;1.23;;
57561;SDS011;43397;51.530;5.974;2023-06-26T13:03:47;4.90;;;1.20;;
57561;SDS011;43397;51.530;5.974;2023-06-26T13:06:13;7.88;;;1.85;;
57561;SDS011;43397;51.530;5.974;2023-06-26T13:08:38;4.13;;;1.25;;
57561;SDS011;43397;51.530;5.974;2023-06-26T13:11:04;4.13;;;0.90;;
57561;SDS011;43397;51.530;5.974;2023-06-26T13:13:30;4.70;;;1.27;;
57561;SDS011;43397;51.530;5.974;2023-06-26T13:15:57;4.60;;;1.23;;
57561;SDS011;43397;51.530;5.974;2023-06-26T13:18:24;3.33;;;0.90;;
57561;SDS011;43397;51.530;5.974;2023-06-26T13:20:49;3.13;;;0.90;;
57561;SDS011;43397;51.530;5.974;2023-06-26T13:23:15;3.75;;;1.00;;
57561;SDS011;43397;51.530;5.974;2023-06-26T13:25:40;6.38;;;1.00;;
57561;SDS011;43397;51.530;5.974;2023-06-26T13:28:06;4.25;;;1.17;;
57561;SDS011;43397;51.530;5.974;2023-06-26T13:30:32;4.95;;;0.95;;
57561;SDS011;43397;51.530;5.974;2023-06-26T13:32:57;4.15;;;0.93;;
57561;SDS011;43397;51.530;5.974;2023-06-26T13:35:24;4.68;;;1.23;;
57561;SDS011;43397;51.530;5.974;2023-06-26T13:37:50;4.50;;;1.00;;
57561;SDS011;43397;51.530;5.974;2023-06-26T13:40:16;3.30;;;1.00;;
57561;SDS011;43397;51.530;5.974;2023-06-26T13:42:41;4.78;;;1.00;;
57561;SDS011;43397;51.530;5.974;2023-06-26T13:45:07;4.28;;;1.20;;
57561;SDS011;43397;51.530;5.974;2023-06-26T13:47:34;6.47;;;1.20;;
57561;SDS011;43397;51.530;5.974;2023-06-26T13:49:59;5.35;;;1.48;;
57561;SDS011;43397;51.530;5.974;2023-06-26T13:52:26;4.07;;;0.98;;
57561;SDS011;43397;51.530;5.974;2023-06-26T13:54:52;2.13;;;0.80;;
57561;SDS011;43397;51.530;5.974;2023-06-26T13:57:17;2.58;;;1.10;;
57561;SDS011;43397;51.530;5.974;2023-06-26T13:59:43;3.08;;;0.95;;
57561;SDS011;43397;51.530;5.974;2023-06-26T14:02:09;4.85;;;1.33;;
57561;SDS011;43397;51.530;5.974;2023-06-26T14:04:34;4.60;;;1.13;;
57561;SDS011;43397;51.530;5.974;2023-06-26T14:07:00;3.10;;;1.08;;
57561;SDS011;43397;51.530;5.974;2023-06-26T14:09:27;4.15;;;0.90;;
57561;SDS011;43397;51.530;5.974;2023-06-26T14:11:53;5.05;;;1.20;;
57561;SDS011;43397;51.530;5.974;2023-06-26T14:14:18;3.88;;;1.02;;
57561;SDS011;43397;51.530;5.974;2023-06-26T14:16:44;4.10;;;1.02;;
57561;SDS011;43397;51.530;5.974;2023-06-26T14:19:09;4.03;;;1.00;;
57561;SDS011;43397;51.530;5.974;2023-06-26T14:21:35;6.32;;;1.50;;
57561;SDS011;43397;51.530;5.974;2023-06-26T14:24:01;3.40;;;0.90;;
57561;SDS011;43397;51.530;5.974;2023-06-26T14:26:28;3.88;;;1.00;;
57561;SDS011;43397;51.530;5.974;2023-06-26T14:28:53;3.63;;;0.93;;
57561;SDS011;43397;51.530;5.974;2023-06-26T14:31:19;2.53;;;0.70;;
57561;SDS011;43397;51.530;5.974;2023-06-26T14:33:45;4.00;;;1.00;;